createdAt,value
2017-07-19T00:00:45.313Z,4.37
2017-07-19T00:03:13.520Z,4.47
2017-07-19T00:05:40.981Z,4.30
2017-07-19T00:08:08.415Z,4.83
2017-07-19T00:10:36.622Z,4.00
2017-07-19T00:13:04.078Z,4.23
2017-07-19T00:15:31.542Z,4.93
2017-07-19T00:17:58.988Z,4.20
2017-07-19T00:20:26.449Z,4.60
2017-07-19T00:22:54.681Z,4.37
2017-07-19T00:25:22.137Z,4.23
2017-07-19T00:27:49.593Z,4.63
2017-07-19T00:30:17.051Z,4.67
2017-07-19T00:32:44.514Z,4.87
2017-07-19T00:35:11.965Z,4.80
2017-07-19T00:37:39.422Z,5.63
2017-07-19T00:40:06.896Z,5.40
2017-07-19T00:42:34.355Z,5.27
2017-07-19T00:45:01.806Z,5.00
2017-07-19T00:47:29.264Z,5.53
2017-07-19T00:49:56.710Z,4.60
2017-07-19T00:52:24.925Z,5.37
2017-07-19T00:54:52.389Z,5.90
2017-07-19T00:57:19.844Z,4.93
2017-07-19T00:59:47.303Z,5.63
2017-07-19T01:02:14.761Z,5.20
2017-07-19T01:04:42.217Z,4.80
2017-07-19T01:07:09.668Z,5.10
2017-07-19T01:09:37.889Z,5.90
2017-07-19T01:12:05.348Z,5.30
2017-07-19T01:14:33.581Z,5.67
2017-07-19T01:17:01.809Z,5.50
2017-07-19T01:19:29.267Z,4.43
2017-07-19T01:21:56.720Z,4.80
2017-07-19T01:24:24.186Z,5.10
2017-07-19T01:26:51.637Z,5.60
2017-07-19T01:29:19.084Z,6.07
2017-07-19T01:31:47.298Z,5.23
2017-07-19T01:34:14.740Z,6.20
2017-07-19T01:36:42.201Z,5.17
2017-07-19T01:39:09.665Z,5.30
2017-07-19T01:41:37.150Z,5.60
2017-07-19T01:44:04.593Z,5.10
2017-07-19T01:46:32.057Z,5.27
2017-07-19T01:48:59.521Z,5.80
2017-07-19T01:51:26.970Z,5.90
2017-07-19T01:53:55.192Z,6.07
2017-07-19T01:56:22.649Z,5.60
2017-07-19T01:58:50.118Z,5.90
2017-07-19T02:01:17.561Z,5.47
2017-07-19T02:03:44.989Z,6.00
2017-07-19T02:06:13.209Z,5.43
2017-07-19T02:08:40.674Z,4.90
2017-07-19T02:11:08.173Z,5.63
2017-07-19T02:13:35.634Z,5.53
2017-07-19T02:16:03.085Z,5.07
2017-07-19T02:18:30.536Z,5.53
2017-07-19T02:20:58.005Z,6.10
2017-07-19T02:23:26.144Z,5.50
2017-07-19T02:25:53.606Z,6.20
2017-07-19T02:28:21.068Z,5.23
2017-07-19T02:30:48.524Z,7.00
2017-07-19T02:33:15.979Z,5.53
2017-07-19T02:35:44.198Z,6.43
2017-07-19T02:38:11.652Z,5.30
2017-07-19T02:40:39.088Z,6.70
2017-07-19T02:43:07.300Z,5.70
2017-07-19T02:45:41.043Z,6.67
2017-07-19T02:48:08.501Z,6.10
2017-07-19T02:50:35.965Z,7.20
2017-07-19T02:53:03.417Z,6.67
2017-07-19T02:55:30.861Z,5.97
2017-07-19T02:57:58.317Z,5.53
2017-07-19T03:00:25.773Z,5.50
2017-07-19T03:02:53.233Z,5.37
2017-07-19T03:05:20.683Z,5.70
2017-07-19T03:07:48.137Z,4.80
2017-07-19T03:10:16.358Z,6.03
2017-07-19T03:12:43.808Z,6.10
2017-07-19T03:15:11.268Z,6.40
2017-07-19T03:17:38.728Z,6.13
2017-07-19T03:20:06.192Z,6.60
2017-07-19T03:22:45.586Z,6.00
2017-07-19T03:25:13.816Z,7.00
2017-07-19T03:27:41.273Z,6.80
2017-07-19T03:30:08.733Z,5.97
2017-07-19T03:32:36.232Z,6.40
2017-07-19T03:35:03.688Z,5.83
2017-07-19T03:37:31.152Z,6.57
2017-07-19T03:39:58.605Z,6.87
2017-07-19T03:42:26.062Z,6.33
2017-07-19T03:44:53.508Z,5.73
2017-07-19T03:47:20.972Z,7.20
2017-07-19T03:49:48.437Z,6.27
2017-07-19T03:52:15.893Z,5.90
2017-07-19T03:54:43.344Z,6.50
2017-07-19T03:57:10.804Z,5.50
2017-07-19T03:59:38.244Z,5.50
2017-07-19T04:02:06.464Z,5.70
2017-07-19T04:04:33.927Z,6.10
2017-07-19T04:07:01.364Z,6.53
2017-07-19T04:09:29.585Z,6.90
2017-07-19T04:11:57.044Z,7.17
2017-07-19T04:14:26.213Z,6.90
2017-07-19T04:16:53.669Z,7.20
2017-07-19T04:19:21.905Z,6.90
2017-07-19T04:21:49.362Z,6.10
2017-07-19T04:24:16.820Z,6.50
2017-07-19T04:26:44.289Z,6.60
2017-07-19T04:29:11.777Z,6.60
2017-07-19T04:31:39.246Z,6.57
2017-07-19T04:34:06.694Z,6.23
2017-07-19T04:36:34.145Z,6.40
2017-07-19T04:39:01.606Z,6.00
2017-07-19T04:41:29.052Z,6.77
2017-07-19T04:43:56.769Z,6.27
2017-07-19T04:46:24.990Z,6.10
2017-07-19T04:48:52.457Z,6.13
2017-07-19T04:51:19.927Z,7.37
2017-07-19T04:53:47.379Z,7.30
2017-07-19T04:56:14.837Z,6.00
2017-07-19T04:58:42.292Z,5.80
2017-07-19T05:01:09.727Z,6.57
2017-07-19T05:03:37.178Z,6.20
2017-07-19T05:06:04.629Z,6.57
2017-07-19T05:08:32.081Z,6.23
2017-07-19T05:10:59.533Z,6.70
2017-07-19T05:13:27.004Z,6.63
2017-07-19T05:15:54.450Z,6.67
2017-07-19T05:18:21.909Z,7.03
2017-07-19T05:20:49.373Z,6.47
2017-07-19T05:23:16.826Z,6.87
2017-07-19T05:25:44.500Z,6.93
2017-07-19T05:28:12.757Z,6.83
2017-07-19T05:30:40.229Z,6.27
2017-07-19T05:33:07.689Z,6.40
2017-07-19T05:35:35.148Z,6.47
2017-07-19T05:38:02.604Z,6.27
2017-07-19T05:40:30.064Z,7.00
2017-07-19T05:42:58.561Z,6.80
2017-07-19T05:45:26.012Z,6.67
2017-07-19T05:47:53.465Z,6.57
2017-07-19T05:50:21.689Z,6.13
2017-07-19T05:52:49.128Z,6.77
2017-07-19T05:55:16.580Z,6.90
2017-07-19T05:57:44.805Z,6.57
2017-07-19T06:00:12.265Z,6.00
2017-07-19T06:02:39.721Z,6.80
2017-07-19T06:05:07.178Z,7.10
2017-07-19T06:07:34.637Z,6.40
2017-07-19T06:10:02.088Z,6.60
2017-07-19T06:12:29.542Z,6.03
2017-07-19T06:14:57.005Z,6.90
2017-07-19T06:17:25.225Z,6.83
2017-07-19T06:19:52.693Z,7.10
2017-07-19T06:22:20.169Z,6.40
2017-07-19T06:24:47.620Z,6.57
2017-07-19T06:27:15.944Z,6.17
2017-07-19T06:29:44.169Z,6.20
2017-07-19T06:32:11.621Z,7.23
2017-07-19T06:34:39.085Z,7.20
2017-07-19T06:37:06.531Z,6.23
2017-07-19T06:39:33.994Z,6.10
2017-07-19T06:42:01.462Z,6.80
2017-07-19T06:44:28.909Z,6.23
2017-07-19T06:46:56.365Z,6.40
2017-07-19T06:49:25.276Z,7.93
2017-07-19T06:51:52.985Z,6.70
2017-07-19T06:54:20.429Z,5.87
2017-07-19T06:56:47.890Z,6.27
2017-07-19T06:59:15.365Z,7.40
2017-07-19T07:01:42.820Z,6.20
2017-07-19T07:04:10.283Z,6.27
2017-07-19T07:06:37.768Z,6.00
2017-07-19T07:09:05.220Z,6.57
2017-07-19T07:11:32.679Z,7.00
2017-07-19T07:14:00.145Z,6.53
2017-07-19T07:16:27.605Z,7.17
2017-07-19T07:18:55.057Z,6.67
2017-07-19T07:21:22.514Z,7.10
2017-07-19T07:23:49.961Z,6.50
2017-07-19T07:26:17.420Z,6.80
2017-07-19T07:28:44.880Z,6.70
2017-07-19T07:31:12.329Z,6.17
2017-07-19T07:33:40.544Z,6.37
2017-07-19T07:36:07.992Z,6.30
2017-07-19T07:38:35.452Z,5.90
2017-07-19T07:41:03.061Z,6.40
2017-07-19T07:43:30.522Z,5.97
2017-07-19T07:45:57.972Z,5.83
2017-07-19T07:48:25.429Z,6.60
2017-07-19T07:50:52.885Z,6.63
2017-07-19T07:53:20.345Z,6.70
2017-07-19T07:55:47.793Z,6.23
2017-07-19T07:58:15.285Z,5.87
2017-07-19T08:00:42.748Z,6.70
2017-07-19T08:03:10.201Z,6.43
2017-07-19T08:05:37.665Z,5.90
2017-07-19T08:08:05.121Z,6.73
2017-07-19T08:10:32.585Z,5.67
2017-07-19T08:13:00.028Z,5.27
2017-07-19T08:15:28.301Z,5.20
2017-07-19T08:17:56.556Z,5.67
2017-07-19T08:20:24.014Z,5.40
2017-07-19T08:22:51.545Z,5.57
2017-07-19T08:25:19.031Z,5.00
2017-07-19T08:27:46.492Z,4.63
2017-07-19T08:30:13.950Z,5.03
2017-07-19T08:32:41.430Z,5.43
2017-07-19T08:35:08.962Z,7.10
2017-07-19T08:37:36.418Z,5.87
2017-07-19T08:40:03.880Z,4.67
2017-07-19T08:42:31.341Z,5.10
2017-07-19T08:44:58.805Z,5.50
2017-07-19T08:47:26.266Z,4.93
2017-07-19T08:49:53.725Z,5.60
2017-07-19T08:52:21.198Z,4.70
2017-07-19T08:54:48.681Z,5.30
2017-07-19T08:57:16.131Z,4.90
2017-07-19T08:59:43.587Z,4.43
2017-07-19T09:02:11.024Z,5.10
2017-07-19T09:04:38.506Z,5.50
2017-07-19T09:07:05.963Z,4.80
2017-07-19T09:09:33.429Z,4.50
2017-07-19T09:12:00.893Z,5.17
2017-07-19T09:14:28.341Z,5.77
2017-07-19T09:16:55.798Z,4.33
2017-07-19T09:19:24.077Z,4.87
2017-07-19T09:21:51.610Z,4.40
2017-07-19T09:24:19.065Z,5.33
2017-07-19T09:26:46.641Z,6.13
2017-07-19T09:29:14.097Z,5.27
2017-07-19T09:31:41.552Z,4.30
2017-07-19T09:34:09.006Z,5.10
2017-07-19T09:36:36.468Z,5.30
2017-07-19T09:39:03.926Z,4.77
2017-07-19T09:41:31.390Z,5.10
2017-07-19T09:43:58.849Z,5.90
2017-07-19T09:46:26.308Z,5.23
2017-07-19T09:48:53.765Z,5.10
2017-07-19T09:51:21.221Z,5.30
2017-07-19T09:53:48.681Z,4.97
2017-07-19T09:56:16.140Z,5.00
2017-07-19T09:58:43.616Z,5.60
2017-07-19T10:01:11.069Z,5.07
2017-07-19T10:03:38.539Z,4.90
2017-07-19T10:06:05.993Z,5.17
2017-07-19T10:08:33.478Z,4.83
2017-07-19T10:11:00.937Z,5.43
2017-07-19T10:13:28.385Z,5.20
2017-07-19T10:15:55.846Z,3.90
2017-07-19T10:18:23.293Z,4.60
2017-07-19T10:20:50.751Z,5.20
2017-07-19T10:23:18.204Z,4.90
2017-07-19T10:25:46.432Z,4.90
2017-07-19T10:28:13.877Z,4.70
2017-07-19T10:30:41.346Z,4.23
2017-07-19T10:33:08.786Z,5.03
2017-07-19T10:35:36.261Z,4.70
2017-07-19T10:38:03.701Z,5.30
2017-07-19T10:40:31.935Z,4.60
2017-07-19T10:42:59.385Z,4.90
2017-07-19T10:45:26.829Z,5.10
2017-07-19T10:47:54.294Z,5.97
2017-07-19T10:50:22.644Z,5.40
2017-07-19T10:52:50.865Z,4.43
2017-07-19T10:55:18.329Z,5.40
2017-07-19T10:57:45.789Z,4.77
2017-07-19T11:00:13.245Z,4.93
2017-07-19T11:02:40.706Z,5.17
2017-07-19T11:05:08.153Z,4.50
2017-07-19T11:07:35.618Z,5.40
2017-07-19T11:10:03.080Z,5.07
2017-07-19T11:12:31.965Z,4.60
2017-07-19T11:15:00.180Z,4.80
2017-07-19T11:17:27.634Z,5.80
2017-07-19T11:19:55.084Z,5.40
2017-07-19T11:22:22.540Z,5.10
2017-07-19T11:24:49.996Z,5.53
2017-07-19T11:27:18.207Z,5.27
2017-07-19T11:29:45.672Z,5.07
2017-07-19T11:32:13.117Z,5.70
2017-07-19T11:34:40.585Z,4.90
2017-07-19T11:37:08.041Z,5.67
2017-07-19T11:39:35.489Z,4.97
2017-07-19T11:42:03.715Z,5.17
2017-07-19T11:44:31.157Z,4.90
2017-07-19T11:46:58.616Z,5.50
2017-07-19T11:49:26.081Z,5.40
2017-07-19T11:51:53.541Z,4.93
2017-07-19T11:54:21.005Z,4.50
2017-07-19T11:56:49.629Z,5.30
2017-07-19T11:59:17.079Z,5.23
2017-07-19T12:01:44.533Z,4.50
2017-07-19T12:04:11.988Z,5.57
2017-07-19T12:06:39.459Z,4.93
2017-07-19T12:09:06.920Z,4.80
2017-07-19T12:11:34.372Z,4.70
2017-07-19T12:14:01.844Z,4.73
2017-07-19T12:16:29.319Z,5.13
2017-07-19T12:18:56.776Z,4.57
2017-07-19T12:21:24.241Z,4.80
2017-07-19T12:23:51.700Z,4.20
2017-07-19T12:26:19.153Z,4.37
2017-07-19T12:28:46.613Z,4.97
2017-07-19T12:31:14.072Z,5.90
2017-07-19T12:33:41.532Z,4.80
2017-07-19T12:36:08.997Z,5.30
2017-07-19T12:38:36.449Z,4.27
2017-07-19T12:41:03.921Z,4.30
2017-07-19T12:43:31.364Z,5.00
2017-07-19T12:45:58.808Z,4.13
2017-07-19T12:48:27.029Z,3.97
2017-07-19T12:50:54.501Z,4.53
2017-07-19T12:53:21.956Z,4.33
2017-07-19T12:55:49.409Z,4.23
2017-07-19T12:58:17.249Z,3.67
2017-07-19T13:00:44.737Z,4.20
2017-07-19T13:03:12.189Z,3.67
2017-07-19T13:05:39.641Z,3.77
2017-07-19T13:08:07.090Z,3.90
2017-07-19T13:10:34.556Z,4.00
2017-07-19T13:13:02.014Z,4.07
2017-07-19T13:15:29.469Z,3.73
2017-07-19T13:17:56.938Z,5.70
2017-07-19T13:20:24.395Z,3.60
2017-07-19T13:22:51.849Z,3.70
2017-07-19T13:25:19.304Z,3.87
2017-07-19T13:27:46.763Z,4.50
2017-07-19T13:30:14.205Z,3.60
2017-07-19T13:32:41.665Z,3.77
2017-07-19T13:35:09.126Z,3.53
2017-07-19T13:37:36.589Z,3.70
2017-07-19T13:40:04.045Z,3.60
2017-07-19T13:42:31.501Z,3.43
2017-07-19T13:44:58.949Z,3.77
2017-07-19T13:47:26.412Z,3.40
2017-07-19T13:49:54.620Z,3.80
2017-07-19T13:52:22.081Z,3.33
2017-07-19T13:54:49.545Z,4.60
2017-07-19T13:57:17.005Z,3.90
2017-07-19T13:59:44.471Z,3.73
2017-07-19T14:02:11.938Z,5.47
2017-07-19T14:04:39.397Z,4.30
2017-07-19T14:07:06.847Z,4.03
2017-07-19T14:09:34.309Z,3.70
2017-07-19T14:12:01.768Z,4.20
2017-07-19T14:14:29.225Z,3.67
2017-07-19T14:16:56.685Z,3.70
2017-07-19T14:19:24.137Z,3.30
2017-07-19T14:21:52.364Z,3.13
2017-07-19T14:24:19.829Z,4.30
2017-07-19T14:26:48.212Z,3.80
2017-07-19T14:29:15.689Z,4.20
2017-07-19T14:31:43.129Z,4.23
2017-07-19T14:34:10.584Z,5.30
2017-07-19T14:36:38.044Z,5.33
2017-07-19T14:39:05.519Z,4.37
2017-07-19T14:41:32.976Z,5.43
2017-07-19T14:44:00.436Z,4.57
2017-07-19T14:46:27.909Z,4.90
2017-07-19T14:48:55.353Z,5.20
2017-07-19T14:51:22.820Z,4.00
2017-07-19T14:53:50.283Z,4.60
2017-07-19T14:56:17.754Z,6.70
2017-07-19T14:58:45.216Z,6.13
2017-07-19T15:01:12.673Z,6.13
2017-07-19T15:03:40.121Z,4.40
2017-07-19T15:06:07.581Z,4.83
2017-07-19T15:08:35.040Z,10.80
2017-07-19T15:11:03.285Z,6.37
2017-07-19T15:13:30.745Z,4.63
2017-07-19T15:15:58.202Z,4.13
2017-07-19T15:18:25.675Z,4.17
2017-07-19T15:20:53.129Z,5.13
2017-07-19T15:23:20.621Z,5.30
2017-07-19T15:25:48.045Z,3.87
2017-07-19T15:28:15.505Z,3.47
2017-07-19T15:30:42.969Z,3.53
2017-07-19T15:33:10.411Z,3.20
2017-07-19T15:35:37.880Z,3.90
2017-07-19T15:38:05.361Z,4.40
2017-07-19T15:40:32.825Z,6.30
2017-07-19T15:43:00.343Z,4.00
2017-07-19T15:45:28.556Z,3.47
2017-07-19T15:47:56.021Z,3.70
2017-07-19T15:50:23.484Z,4.87
2017-07-19T15:52:50.950Z,3.60
2017-07-19T15:55:18.414Z,3.63
2017-07-19T15:57:45.873Z,3.33
2017-07-19T16:00:13.388Z,3.87
2017-07-19T16:02:41.609Z,3.97
2017-07-19T16:05:09.085Z,3.93
2017-07-19T16:07:36.544Z,5.00
2017-07-19T16:10:04.016Z,3.17
2017-07-19T16:12:31.475Z,3.83
2017-07-19T16:14:58.941Z,3.57
2017-07-19T16:17:26.404Z,3.23
2017-07-19T16:19:53.871Z,4.27
2017-07-19T16:22:21.317Z,3.73
2017-07-19T16:24:48.785Z,5.60
2017-07-19T16:27:16.229Z,4.53
2017-07-19T16:29:43.773Z,4.10
2017-07-19T16:32:11.236Z,5.03
2017-07-19T16:34:38.704Z,4.70
2017-07-19T16:37:06.161Z,3.90
2017-07-19T16:39:33.628Z,3.63
2017-07-19T16:42:01.094Z,4.07
2017-07-19T16:44:28.549Z,3.70
2017-07-19T16:46:56.012Z,3.87
2017-07-19T16:49:23.456Z,3.03
2017-07-19T16:51:51.676Z,4.00
2017-07-19T16:54:19.137Z,3.80
2017-07-19T16:56:46.587Z,3.10
2017-07-19T16:59:14.048Z,3.20
2017-07-19T17:01:41.545Z,3.90
2017-07-19T17:04:09.018Z,3.60
2017-07-19T17:06:36.481Z,4.40
2017-07-19T17:09:04.920Z,4.17
2017-07-19T17:11:32.364Z,3.90
2017-07-19T17:14:00.584Z,4.63
2017-07-19T17:16:28.052Z,3.50
2017-07-19T17:18:55.514Z,5.17
2017-07-19T17:21:22.965Z,4.50
2017-07-19T17:23:50.416Z,3.93
2017-07-19T17:26:17.876Z,3.20
2017-07-19T17:28:45.340Z,3.30
2017-07-19T17:31:12.793Z,3.60
2017-07-19T17:33:40.255Z,3.43
2017-07-19T17:36:08.468Z,4.30
2017-07-19T17:38:35.928Z,3.07
2017-07-19T17:41:03.390Z,3.97
2017-07-19T17:43:30.845Z,3.37
2017-07-19T17:45:58.303Z,3.77
2017-07-19T17:48:25.812Z,2.57
2017-07-19T17:50:53.270Z,3.50
2017-07-19T17:53:20.725Z,3.50
2017-07-19T17:55:48.186Z,3.20
2017-07-19T17:58:15.638Z,3.60
2017-07-19T18:00:43.096Z,4.10
2017-07-19T18:03:10.561Z,3.70
2017-07-19T18:05:38.014Z,2.80
2017-07-19T18:08:05.472Z,3.00
2017-07-19T18:10:32.927Z,3.63
2017-07-19T18:13:00.388Z,3.20
2017-07-19T18:15:27.848Z,3.37
2017-07-19T18:17:55.300Z,3.37
2017-07-19T18:20:22.753Z,3.50
2017-07-19T18:22:50.973Z,3.40
2017-07-19T18:25:18.431Z,3.97
2017-07-19T18:27:45.905Z,2.40
2017-07-19T18:30:13.365Z,3.87
2017-07-19T18:32:40.828Z,2.57
2017-07-19T18:35:08.297Z,3.53
2017-07-19T18:37:35.997Z,3.33
2017-07-19T18:40:03.462Z,3.53
2017-07-19T18:42:30.917Z,3.90
2017-07-19T18:44:58.373Z,2.90
2017-07-19T18:47:25.828Z,3.40
2017-07-19T18:49:53.288Z,3.30
2017-07-19T18:52:20.726Z,3.47
2017-07-19T18:54:48.184Z,4.00
2017-07-19T18:57:17.065Z,4.30
2017-07-19T18:59:44.522Z,3.23
2017-07-19T19:02:11.977Z,2.90
2017-07-19T19:04:40.201Z,4.30
2017-07-19T19:07:07.650Z,3.60
2017-07-19T19:09:35.110Z,3.20
2017-07-19T19:12:02.569Z,3.70
2017-07-19T19:14:30.394Z,3.33
2017-07-19T19:16:57.941Z,3.63
2017-07-19T19:19:25.400Z,4.10
2017-07-19T19:21:52.852Z,3.30
2017-07-19T19:24:20.297Z,4.00
2017-07-19T19:26:47.765Z,3.77
2017-07-19T19:29:15.221Z,3.77
2017-07-19T19:31:42.672Z,4.00
2017-07-19T19:34:10.125Z,3.73
2017-07-19T19:36:37.584Z,3.37
2017-07-19T19:39:05.805Z,3.73
2017-07-19T19:41:33.305Z,3.50
2017-07-19T19:44:00.772Z,3.60
2017-07-19T19:46:28.217Z,4.30
2017-07-19T19:48:55.679Z,3.80
2017-07-19T19:51:23.130Z,3.73
2017-07-19T19:53:50.593Z,5.00
2017-07-19T19:56:18.041Z,4.27
2017-07-19T19:58:45.513Z,4.87
2017-07-19T20:01:12.968Z,3.70
2017-07-19T20:03:40.452Z,3.60
2017-07-19T20:06:07.900Z,3.33
2017-07-19T20:08:35.368Z,4.23
2017-07-19T20:11:02.813Z,4.37
2017-07-19T20:13:30.265Z,3.50
2017-07-19T20:15:57.753Z,3.80
2017-07-19T20:18:25.198Z,4.30
2017-07-19T20:20:52.661Z,3.67
2017-07-19T20:23:20.119Z,3.97
2017-07-19T20:25:47.580Z,3.13
2017-07-19T20:28:15.038Z,4.33
2017-07-19T20:30:42.501Z,4.07
2017-07-19T20:33:09.949Z,3.97
2017-07-19T20:35:37.408Z,4.80
2017-07-19T20:38:04.865Z,4.80
2017-07-19T20:40:33.076Z,5.80
2017-07-19T20:43:00.536Z,4.10
2017-07-19T20:45:28.016Z,4.87
2017-07-19T20:47:55.477Z,3.87
2017-07-19T20:50:22.931Z,4.23
2017-07-19T20:52:50.436Z,3.87
2017-07-19T20:55:17.893Z,3.80
2017-07-19T20:57:45.345Z,3.63
2017-07-19T21:00:12.785Z,3.90
2017-07-19T21:02:40.252Z,4.00
2017-07-19T21:05:07.753Z,3.93
2017-07-19T21:07:35.216Z,4.00
2017-07-19T21:10:02.677Z,4.33
2017-07-19T21:12:30.116Z,3.67
2017-07-19T21:14:57.568Z,3.53
2017-07-19T21:17:25.028Z,4.87
2017-07-19T21:19:52.489Z,3.63
2017-07-19T21:22:19.967Z,4.00
2017-07-19T21:24:47.417Z,4.20
2017-07-19T21:27:14.872Z,3.07
2017-07-19T21:29:42.328Z,3.83
2017-07-19T21:32:09.785Z,4.57
2017-07-19T21:34:37.220Z,4.77
2017-07-19T21:37:05.449Z,4.07
2017-07-19T21:39:32.915Z,3.43
2017-07-19T21:42:00.381Z,4.27
2017-07-19T21:44:27.845Z,4.23
2017-07-19T21:46:55.305Z,3.93
2017-07-19T21:49:22.753Z,3.47
2017-07-19T21:51:50.270Z,3.67
2017-07-19T21:54:18.490Z,3.50
2017-07-19T21:56:45.966Z,4.10
2017-07-19T21:59:13.442Z,4.90
2017-07-19T22:01:41.908Z,3.57
2017-07-19T22:04:09.365Z,2.53
2017-07-19T22:06:36.808Z,2.83
2017-07-19T22:09:04.264Z,3.80
2017-07-19T22:11:32.481Z,3.43
2017-07-19T22:13:59.948Z,4.10
2017-07-19T22:16:27.425Z,3.40
2017-07-19T22:18:54.882Z,3.43
2017-07-19T22:21:22.341Z,3.83
2017-07-19T22:23:49.789Z,3.67
2017-07-19T22:26:17.244Z,3.90
2017-07-19T22:28:44.710Z,3.50
2017-07-19T22:31:12.166Z,3.80
2017-07-19T22:33:39.624Z,4.13
2017-07-19T22:36:07.073Z,4.00
2017-07-19T22:38:34.546Z,3.80
2017-07-19T22:41:01.996Z,3.37
2017-07-19T22:43:29.463Z,3.70
2017-07-19T22:45:56.986Z,2.83
2017-07-19T22:48:24.436Z,3.20
2017-07-19T22:50:51.904Z,3.67
2017-07-19T22:53:19.361Z,4.40
2017-07-19T22:55:46.814Z,3.03
2017-07-19T22:58:14.265Z,3.80
2017-07-19T23:00:41.713Z,3.37
2017-07-19T23:03:09.173Z,4.00
2017-07-19T23:05:36.616Z,3.57
2017-07-19T23:08:04.900Z,3.73
2017-07-19T23:10:33.117Z,4.50
2017-07-19T23:13:00.624Z,4.20
2017-07-19T23:15:28.078Z,3.57
2017-07-19T23:17:55.538Z,3.73
2017-07-19T23:20:22.988Z,4.10
2017-07-19T23:22:50.449Z,3.87
2017-07-19T23:25:17.905Z,3.90
2017-07-19T23:27:45.912Z,3.83
2017-07-19T23:30:13.373Z,3.80
2017-07-19T23:32:40.813Z,4.93
2017-07-19T23:35:08.275Z,3.80
2017-07-19T23:37:35.729Z,4.43
2017-07-19T23:40:03.195Z,4.30
2017-07-19T23:42:30.653Z,4.23
2017-07-19T23:44:58.116Z,3.93
2017-07-19T23:47:25.569Z,3.60
2017-07-19T23:49:53.419Z,4.50
2017-07-19T23:52:21.633Z,4.57
2017-07-19T23:54:49.089Z,4.53
2017-07-19T23:57:16.541Z,4.43
2017-07-19T23:59:44.008Z,4.20
